sensor_id;sensor_type;location;lat;lon;timestamp;pressure;altitude;pressure_sealevel;temperature;humidity
45323;BME280;31382;50.200;8.674;2023-05-18T00:05:00;101233.56;;;11.10;47.66
45323;BME280;31382;50.200;8.674;2023-05-18T00:10:02;101222.91;;;11.01;47.91
45323;BME280;31382;50.200;8.674;2023-05-18T00:15:04;101216.97;;;10.97;48.13
45323;BME280;31382;50.200;8.674;2023-05-18T00:20:06;101220.50;;;10.98;47.99
45323;BME280;31382;50.200;8.674;2023-05-18T00:25:09;101216.53;;;10.84;48.14
45323;BME280;31382;50.200;8.674;2023-05-18T00:30:11;101214.72;;;10.84;48.19
45323;BME280;31382;50.200;8.674;2023-05-18T00:35:13;101209.78;;;10.80;48.24
45323;BME280;31382;50.200;8.674;2023-05-18T00:40:14;101219.66;;;10.71;48.82
45323;BME280;31382;50.200;8.674;2023-05-18T00:45:17;101215.03;;;10.63;48.75
45323;BME280;31382;50.200;8.674;2023-05-18T00:50:19;101210.50;;;10.64;48.83
45323;BME280;31382;50.200;8.674;2023-05-18T00:55:20;101216.22;;;10.61;48.70
45323;BME280;31382;50.200;8.674;2023-05-18T01:00:22;101218.81;;;10.52;49.01
45323;BME280;31382;50.200;8.674;2023-05-18T01:05:24;101215.75;;;10.47;49.17
45323;BME280;31382;50.200;8.674;2023-05-18T01:10:26;101209.53;;;10.47;49.16
45323;BME280;31382;50.200;8.674;2023-05-18T01:15:31;101210.06;;;10.50;49.24
45323;BME280;31382;50.200;8.674;2023-05-18T01:20:49;101206.66;;;10.48;49.38
45323;BME280;31382;50.200;8.674;2023-05-18T01:30:59;101212.84;;;10.41;49.67
45323;BME280;31382;50.200;8.674;2023-05-18T01:36:01;101214.44;;;10.34;49.88
45323;BME280;31382;50.200;8.674;2023-05-18T01:41:11;101212.47;;;10.26;50.27
45323;BME280;31382;50.200;8.674;2023-05-18T01:46:39;101208.41;;;10.22;50.33
45323;BME280;31382;50.200;8.674;2023-05-18T01:51:45;101209.47;;;10.11;50.52
45323;BME280;31382;50.200;8.674;2023-05-18T01:56:48;101208.25;;;10.05;50.46
45323;BME280;31382;50.200;8.674;2023-05-18T02:01:51;101213.06;;;10.02;50.59
45323;BME280;31382;50.200;8.674;2023-05-18T02:07:00;101213.22;;;10.00;50.75
45323;BME280;31382;50.200;8.674;2023-05-18T02:12:01;101219.47;;;9.91;51.10
45323;BME280;31382;50.200;8.674;2023-05-18T02:17:03;101213.31;;;9.81;51.33
45323;BME280;31382;50.200;8.674;2023-05-18T02:22:07;101214.03;;;9.83;51.15
45323;BME280;31382;50.200;8.674;2023-05-18T02:27:08;101211.34;;;9.83;51.30
45323;BME280;31382;50.200;8.674;2023-05-18T02:32:10;101222.38;;;9.80;51.26
45323;BME280;31382;50.200;8.674;2023-05-18T02:37:11;101213.94;;;9.75;51.59
45323;BME280;31382;50.200;8.674;2023-05-18T02:42:14;101214.06;;;9.73;51.90
45323;BME280;31382;50.200;8.674;2023-05-18T02:47:15;101203.09;;;9.66;51.99
45323;BME280;31382;50.200;8.674;2023-05-18T02:52:17;101212.28;;;9.64;51.95
45323;BME280;31382;50.200;8.674;2023-05-18T02:57:19;101203.69;;;9.60;52.27
45323;BME280;31382;50.200;8.674;2023-05-18T03:02:20;101216.31;;;9.50;52.62
45323;BME280;31382;50.200;8.674;2023-05-18T03:07:23;101222.44;;;9.32;52.47
45323;BME280;31382;50.200;8.674;2023-05-18T03:12:27;101218.09;;;9.22;52.93
45323;BME280;31382;50.200;8.674;2023-05-18T03:17:29;101214.59;;;9.11;53.26
45323;BME280;31382;50.200;8.674;2023-05-18T03:22:30;101221.94;;;9.00;53.44
45323;BME280;31382;50.200;8.674;2023-05-18T03:27:32;101222.41;;;8.85;53.95
45323;BME280;31382;50.200;8.674;2023-05-18T03:32:34;101222.28;;;8.77;54.30
45323;BME280;31382;50.200;8.674;2023-05-18T03:37:37;101219.75;;;8.66;54.53
45323;BME280;31382;50.200;8.674;2023-05-18T03:42:39;101215.53;;;8.63;54.21
45323;BME280;31382;50.200;8.674;2023-05-18T03:47:41;101224.84;;;8.69;54.40
45323;BME280;31382;50.200;8.674;2023-05-18T03:52:43;101227.50;;;8.69;54.88
45323;BME280;31382;50.200;8.674;2023-05-18T03:57:44;101220.56;;;8.66;54.92
45323;BME280;31382;50.200;8.674;2023-05-18T04:02:46;101226.81;;;8.67;54.86
45323;BME280;31382;50.200;8.674;2023-05-18T04:07:47;101224.41;;;8.64;55.10
45323;BME280;31382;50.200;8.674;2023-05-18T04:12:50;101230.47;;;8.66;54.82
45323;BME280;31382;50.200;8.674;2023-05-18T04:17:51;101227.66;;;8.67;55.40
45323;BME280;31382;50.200;8.674;2023-05-18T04:22:54;101230.31;;;8.67;54.87
45323;BME280;31382;50.200;8.674;2023-05-18T04:27:57;101239.63;;;8.73;55.15
45323;BME280;31382;50.200;8.674;2023-05-18T04:32:59;101237.38;;;8.78;55.21
45323;BME280;31382;50.200;8.674;2023-05-18T04:38:00;101245.41;;;8.88;55.18
45323;BME280;31382;50.200;8.674;2023-05-18T04:43:03;101251.88;;;8.95;55.50
45323;BME280;31382;50.200;8.674;2023-05-18T04:48:06;101248.31;;;9.04;55.32
45323;BME280;31382;50.200;8.674;2023-05-18T04:53:08;101249.59;;;9.10;55.52
45323;BME280;31382;50.200;8.674;2023-05-18T04:58:12;101247.19;;;9.17;55.22
45323;BME280;31382;50.200;8.674;2023-05-18T05:03:13;101252.22;;;9.29;55.36
45323;BME280;31382;50.200;8.674;2023-05-18T05:08:15;101251.94;;;9.42;55.38
45323;BME280;31382;50.200;8.674;2023-05-18T05:13:16;101247.94;;;9.56;55.45
45323;BME280;31382;50.200;8.674;2023-05-18T05:18:18;101248.72;;;9.66;55.61
45323;BME280;31382;50.200;8.674;2023-05-18T05:23:20;101244.72;;;9.80;55.39
45323;BME280;31382;50.200;8.674;2023-05-18T05:28:21;101244.06;;;9.96;55.28
45323;BME280;31382;50.200;8.674;2023-05-18T05:33:23;101243.63;;;10.19;54.78
45323;BME280;31382;50.200;8.674;2023-05-18T05:38:24;101238.19;;;10.28;54.90
45323;BME280;31382;50.200;8.674;2023-05-18T05:43:26;101255.66;;;10.42;54.74
45323;BME280;31382;50.200;8.674;2023-05-18T05:48:27;101245.09;;;10.59;54.57
45323;BME280;31382;50.200;8.674;2023-05-18T05:53:29;101249.28;;;10.79;53.74
45323;BME280;31382;50.200;8.674;2023-05-18T05:58:30;101250.97;;;10.98;53.87
45323;BME280;31382;50.200;8.674;2023-05-18T06:03:32;101257.16;;;11.17;53.13
45323;BME280;31382;50.200;8.674;2023-05-18T06:08:36;101260.13;;;11.31;53.05
45323;BME280;31382;50.200;8.674;2023-05-18T06:13:37;101264.44;;;11.50;52.61
45323;BME280;31382;50.200;8.674;2023-05-18T06:18:39;101264.69;;;11.65;52.44
45323;BME280;31382;50.200;8.674;2023-05-18T06:23:41;101252.81;;;11.84;51.45
45323;BME280;31382;50.200;8.674;2023-05-18T06:28:43;101273.63;;;12.00;51.48
45323;BME280;31382;50.200;8.674;2023-05-18T06:33:44;101261.22;;;12.16;51.18
45323;BME280;31382;50.200;8.674;2023-05-18T06:38:46;101264.63;;;12.34;50.88
45323;BME280;31382;50.200;8.674;2023-05-18T06:43:47;101267.69;;;12.39;50.55
45323;BME280;31382;50.200;8.674;2023-05-18T06:48:49;101273.59;;;12.51;50.06
45323;BME280;31382;50.200;8.674;2023-05-18T06:53:51;101269.22;;;12.50;50.16
45323;BME280;31382;50.200;8.674;2023-05-18T06:58:53;101261.00;;;12.68;49.80
45323;BME280;31382;50.200;8.674;2023-05-18T07:03:55;101264.69;;;12.83;49.99
45323;BME280;31382;50.200;8.674;2023-05-18T07:08:57;101274.63;;;12.99;49.41
45323;BME280;31382;50.200;8.674;2023-05-18T07:13:58;101273.81;;;13.15;49.44
45323;BME280;31382;50.200;8.674;2023-05-18T07:19:00;101275.31;;;13.34;49.29
45323;BME280;31382;50.200;8.674;2023-05-18T07:24:01;101280.53;;;13.27;49.07
45323;BME280;31382;50.200;8.674;2023-05-18T07:29:03;101282.91;;;13.39;48.99
45323;BME280;31382;50.200;8.674;2023-05-18T07:34:04;101270.03;;;13.65;49.15
45323;BME280;31382;50.200;8.674;2023-05-18T07:39:06;101268.41;;;13.87;48.33
45323;BME280;31382;50.200;8.674;2023-05-18T07:44:08;101269.53;;;14.01;48.54
45323;BME280;31382;50.200;8.674;2023-05-18T07:49:09;101261.53;;;14.16;48.09
45323;BME280;31382;50.200;8.674;2023-05-18T07:54:11;101256.88;;;14.33;47.63
45323;BME280;31382;50.200;8.674;2023-05-18T07:59:13;101259.28;;;14.28;47.67
45323;BME280;31382;50.200;8.674;2023-05-18T08:04:14;101255.41;;;14.54;47.02
45323;BME280;31382;50.200;8.674;2023-05-18T08:09:19;101253.56;;;14.77;46.63
45323;BME280;31382;50.200;8.674;2023-05-18T08:14:22;101257.53;;;14.90;46.21
45323;BME280;31382;50.200;8.674;2023-05-18T08:19:24;101250.56;;;15.10;45.92
45323;BME280;31382;50.200;8.674;2023-05-18T08:24:26;101251.53;;;15.32;45.61
45323;BME280;31382;50.200;8.674;2023-05-18T08:29:27;101245.94;;;15.63;45.36
45323;BME280;31382;50.200;8.674;2023-05-18T08:34:29;101245.19;;;15.70;45.05
45323;BME280;31382;50.200;8.674;2023-05-18T08:39:30;101240.91;;;15.75;44.62
45323;BME280;31382;50.200;8.674;2023-05-18T08:44:39;101229.06;;;15.76;44.51
45323;BME280;31382;50.200;8.674;2023-05-18T08:49:41;101222.84;;;15.97;44.21
45323;BME280;31382;50.200;8.674;2023-05-18T08:54:43;101219.03;;;16.28;43.87
45323;BME280;31382;50.200;8.674;2023-05-18T08:59:48;101218.66;;;16.31;43.36
45323;BME280;31382;50.200;8.674;2023-05-18T09:04:49;101218.56;;;16.24;43.37
45323;BME280;31382;50.200;8.674;2023-05-18T09:09:53;101206.50;;;16.49;43.09
45323;BME280;31382;50.200;8.674;2023-05-18T09:14:55;101196.34;;;16.79;42.34
45323;BME280;31382;50.200;8.674;2023-05-18T09:19:57;101205.63;;;16.84;42.25
45323;BME280;31382;50.200;8.674;2023-05-18T09:24:58;101198.25;;;17.07;41.98
45323;BME280;31382;50.200;8.674;2023-05-18T09:30:00;101201.28;;;17.18;41.42
45323;BME280;31382;50.200;8.674;2023-05-18T09:35:05;101198.47;;;17.40;41.46
45323;BME280;31382;50.200;8.674;2023-05-18T09:40:07;101193.78;;;17.62;41.34
45323;BME280;31382;50.200;8.674;2023-05-18T09:45:22;101193.09;;;17.88;40.90
45323;BME280;31382;50.200;8.674;2023-05-18T09:50:25;101185.81;;;18.09;40.32
45323;BME280;31382;50.200;8.674;2023-05-18T09:55:27;101179.72;;;18.00;40.00
45323;BME280;31382;50.200;8.674;2023-05-18T10:00:29;101180.19;;;18.10;39.25
45323;BME280;31382;50.200;8.674;2023-05-18T10:05:31;101173.06;;;18.16;39.05
45323;BME280;31382;50.200;8.674;2023-05-18T10:10:37;101173.75;;;18.38;38.54
45323;BME280;31382;50.200;8.674;2023-05-18T10:15:50;101166.22;;;18.53;38.01
45323;BME280;31382;50.200;8.674;2023-05-18T10:20:56;101160.19;;;18.85;37.53
45323;BME280;31382;50.200;8.674;2023-05-18T10:26:03;101173.16;;;19.02;37.01
45323;BME280;31382;50.200;8.674;2023-05-18T10:31:06;101154.72;;;18.98;36.97
45323;BME280;31382;50.200;8.674;2023-05-18T10:36:09;101145.72;;;18.84;37.06
45323;BME280;31382;50.200;8.674;2023-05-18T10:41:11;101150.50;;;18.75;36.48
45323;BME280;31382;50.200;8.674;2023-05-18T10:46:14;101145.19;;;19.34;35.63
45323;BME280;31382;50.200;8.674;2023-05-18T10:51:17;101146.63;;;19.50;35.20
45323;BME280;31382;50.200;8.674;2023-05-18T10:56:20;101134.97;;;19.81;34.97
45323;BME280;31382;50.200;8.674;2023-05-18T11:01:23;101142.22;;;20.32;34.18
45323;BME280;31382;50.200;8.674;2023-05-18T11:06:25;101127.47;;;20.65;34.21
45323;BME280;31382;50.200;8.674;2023-05-18T11:11:27;101124.94;;;20.89;33.87
45323;BME280;31382;50.200;8.674;2023-05-18T11:16:34;101119.50;;;21.07;32.83
45323;BME280;31382;50.200;8.674;2023-05-18T11:26:43;101110.06;;;21.40;32.33
45323;BME280;31382;50.200;8.674;2023-05-18T11:31:46;101117.97;;;21.30;32.04
45323;BME280;31382;50.200;8.674;2023-05-18T11:36:54;101109.34;;;21.33;32.15
45323;BME280;31382;50.200;8.674;2023-05-18T11:42:00;101110.59;;;21.30;31.52
45323;BME280;31382;50.200;8.674;2023-05-18T11:47:04;101097.56;;;21.51;31.93
45323;BME280;31382;50.200;8.674;2023-05-18T11:52:15;101096.19;;;21.90;31.22
45323;BME280;31382;50.200;8.674;2023-05-18T11:57:18;101094.13;;;22.16;30.69
45323;BME280;31382;50.200;8.674;2023-05-18T12:02:24;101097.03;;;22.45;30.17
45323;BME280;31382;50.200;8.674;2023-05-18T12:07:28;101081.56;;;22.86;29.73
45323;BME280;31382;50.200;8.674;2023-05-18T12:12:32;101084.34;;;23.38;28.62
45323;BME280;31382;50.200;8.674;2023-05-18T12:17:45;101075.78;;;23.92;27.90
45323;BME280;31382;50.200;8.674;2023-05-18T12:22:51;101072.56;;;24.12;27.41
45323;BME280;31382;50.200;8.674;2023-05-18T12:27:54;101071.97;;;24.27;27.22
45323;BME280;31382;50.200;8.674;2023-05-18T12:32:58;101078.00;;;24.24;27.05
45323;BME280;31382;50.200;8.674;2023-05-18T12:38:01;101065.56;;;24.38;26.79
45323;BME280;31382;50.200;8.674;2023-05-18T12:43:03;101062.75;;;24.16;26.23
45323;BME280;31382;50.200;8.674;2023-05-18T12:48:10;101049.44;;;24.59;26.45
45323;BME280;31382;50.200;8.674;2023-05-18T12:53:12;101054.13;;;24.80;25.51
45323;BME280;31382;50.200;8.674;2023-05-18T12:58:14;101048.59;;;25.19;25.56
45323;BME280;31382;50.200;8.674;2023-05-18T13:03:19;101043.94;;;25.42;25.57
45323;BME280;31382;50.200;8.674;2023-05-18T13:08:23;101042.25;;;25.41;25.23
45323;BME280;31382;50.200;8.674;2023-05-18T13:13:24;101037.00;;;25.39;24.86
45323;BME280;31382;50.200;8.674;2023-05-18T13:18:26;101030.88;;;25.59;24.78
45323;BME280;31382;50.200;8.674;2023-05-18T13:23:28;101024.63;;;26.23;23.67
45323;BME280;31382;50.200;8.674;2023-05-18T13:28:30;101032.25;;;26.16;23.70
45323;BME280;31382;50.200;8.674;2023-05-18T13:33:31;101032.44;;;26.42;23.76
45323;BME280;31382;50.200;8.674;2023-05-18T13:38:33;101014.19;;;26.73;23.68
45323;BME280;31382;50.200;8.674;2023-05-18T13:43:37;101015.28;;;27.30;23.13
45323;BME280;31382;50.200;8.674;2023-05-18T13:48:38;101022.06;;;27.07;23.00
45323;BME280;31382;50.200;8.674;2023-05-18T13:53:40;101008.47;;;26.85;22.90
45323;BME280;31382;50.200;8.674;2023-05-18T13:58:41;101005.94;;;27.52;22.38
45323;BME280;31382;50.200;8.674;2023-05-18T14:03:44;100998.28;;;27.95;22.00
45323;BME280;31382;50.200;8.674;2023-05-18T14:08:46;100998.47;;;28.65;21.70
45323;BME280;31382;50.200;8.674;2023-05-18T14:13:47;100999.13;;;29.17;21.19
45323;BME280;31382;50.200;8.674;2023-05-18T14:18:50;100983.28;;;29.22;20.69
45323;BME280;31382;50.200;8.674;2023-05-18T14:23:52;100970.06;;;29.04;20.83
45323;BME280;31382;50.200;8.674;2023-05-18T14:28:53;100972.09;;;28.83;21.04
45323;BME280;31382;50.200;8.674;2023-05-18T14:33:54;100976.75;;;29.53;20.80
45323;BME280;31382;50.200;8.674;2023-05-18T14:38:56;100963.47;;;30.13;20.31
45323;BME280;31382;50.200;8.674;2023-05-18T14:43:58;100973.19;;;30.69;19.32
45323;BME280;31382;50.200;8.674;2023-05-18T14:48:59;100972.44;;;30.82;18.86
45323;BME280;31382;50.200;8.674;2023-05-18T14:54:01;100963.84;;;30.60;18.52
45323;BME280;31382;50.200;8.674;2023-05-18T14:59:02;100958.69;;;30.24;18.93
45323;BME280;31382;50.200;8.674;2023-05-18T15:04:04;100963.59;;;29.69;19.00
45323;BME280;31382;50.200;8.674;2023-05-18T15:09:06;100955.66;;;29.57;19.55
45323;BME280;31382;50.200;8.674;2023-05-18T15:14:08;100947.91;;;29.54;19.71
45323;BME280;31382;50.200;8.674;2023-05-18T15:19:10;100962.38;;;29.45;19.76
45323;BME280;31382;50.200;8.674;2023-05-18T15:24:11;100953.88;;;29.32;20.06
45323;BME280;31382;50.200;8.674;2023-05-18T15:29:13;100952.28;;;29.20;19.75
45323;BME280;31382;50.200;8.674;2023-05-18T15:34:14;100945.97;;;29.10;20.24
45323;BME280;31382;50.200;8.674;2023-05-18T15:39:15;100945.47;;;28.97;20.57
45323;BME280;31382;50.200;8.674;2023-05-18T15:44:17;100945.50;;;28.87;20.47
45323;BME280;31382;50.200;8.674;2023-05-18T15:49:18;100942.81;;;28.77;20.54
45323;BME280;31382;50.200;8.674;2023-05-18T15:54:21;100940.63;;;28.74;21.10
45323;BME280;31382;50.200;8.674;2023-05-18T15:59:23;100938.75;;;28.48;21.35
45323;BME280;31382;50.200;8.674;2023-05-18T16:04:24;100928.63;;;27.87;22.27
45323;BME280;31382;50.200;8.674;2023-05-18T16:09:26;100929.47;;;27.98;22.57
45323;BME280;31382;50.200;8.674;2023-05-18T16:14:27;100924.75;;;28.09;22.35
45323;BME280;31382;50.200;8.674;2023-05-18T16:19:29;100923.66;;;28.05;22.35
45323;BME280;31382;50.200;8.674;2023-05-18T16:24:30;100928.91;;;27.65;22.90
45323;BME280;31382;50.200;8.674;2023-05-18T16:29:32;100926.13;;;27.45;23.13
45323;BME280;31382;50.200;8.674;2023-05-18T16:34:33;100934.44;;;27.55;22.66
45323;BME280;31382;50.200;8.674;2023-05-18T16:39:35;100938.84;;;27.56;22.77
45323;BME280;31382;50.200;8.674;2023-05-18T16:44:37;100934.41;;;27.60;22.19
45323;BME280;31382;50.200;8.674;2023-05-18T16:49:38;100933.31;;;27.51;22.58
45323;BME280;31382;50.200;8.674;2023-05-18T16:54:40;100950.63;;;27.16;22.81
45323;BME280;31382;50.200;8.674;2023-05-18T16:59:41;100950.53;;;26.80;23.42
45323;BME280;31382;50.200;8.674;2023-05-18T17:04:43;100948.25;;;26.71;23.97
45323;BME280;31382;50.200;8.674;2023-05-18T17:09:50;100949.34;;;26.60;24.31
45323;BME280;31382;50.200;8.674;2023-05-18T17:14:51;100953.09;;;26.49;24.69
45323;BME280;31382;50.200;8.674;2023-05-18T17:19:52;100949.31;;;26.18;24.92
45323;BME280;31382;50.200;8.674;2023-05-18T17:24:54;100947.66;;;25.79;24.91
45323;BME280;31382;50.200;8.674;2023-05-18T17:29:56;100953.59;;;25.66;25.30
45323;BME280;31382;50.200;8.674;2023-05-18T17:34:58;100946.22;;;25.44;25.55
45323;BME280;31382;50.200;8.674;2023-05-18T17:39:59;100941.94;;;25.04;25.82
45323;BME280;31382;50.200;8.674;2023-05-18T17:45:01;100947.88;;;25.18;25.45
45323;BME280;31382;50.200;8.674;2023-05-18T17:50:03;100953.69;;;25.00;25.60
45323;BME280;31382;50.200;8.674;2023-05-18T17:55:04;100947.94;;;25.01;25.87
45323;BME280;31382;50.200;8.674;2023-05-18T18:00:07;100953.03;;;24.65;26.01
45323;BME280;31382;50.200;8.674;2023-05-18T18:05:08;100954.69;;;24.10;26.51
45323;BME280;31382;50.200;8.674;2023-05-18T18:10:10;100958.38;;;23.53;27.45
45323;BME280;31382;50.200;8.674;2023-05-18T18:15:12;100966.91;;;22.71;28.15
45323;BME280;31382;50.200;8.674;2023-05-18T18:20:13;100965.75;;;21.96;29.30
45323;BME280;31382;50.200;8.674;2023-05-18T18:25:15;100978.06;;;21.33;30.06
45323;BME280;31382;50.200;8.674;2023-05-18T18:30:16;100976.34;;;20.83;30.61
45323;BME280;31382;50.200;8.674;2023-05-18T18:35:18;100978.97;;;20.34;31.35
45323;BME280;31382;50.200;8.674;2023-05-18T18:40:19;100974.59;;;19.83;32.27
45323;BME280;31382;50.200;8.674;2023-05-18T18:45:21;100986.41;;;19.38;32.97
45323;BME280;31382;50.200;8.674;2023-05-18T18:50:23;100989.28;;;19.12;33.69
45323;BME280;31382;50.200;8.674;2023-05-18T18:55:25;100990.03;;;18.80;34.13
45323;BME280;31382;50.200;8.674;2023-05-18T19:00:27;100995.50;;;18.54;34.69
45323;BME280;31382;50.200;8.674;2023-05-18T19:05:28;101004.34;;;18.16;35.21
45323;BME280;31382;50.200;8.674;2023-05-18T19:10:31;101008.75;;;17.83;35.81
45323;BME280;31382;50.200;8.674;2023-05-18T19:15:34;101016.81;;;17.57;36.27
45323;BME280;31382;50.200;8.674;2023-05-18T19:20:36;101035.38;;;17.33;36.98
45323;BME280;31382;50.200;8.674;2023-05-18T19:25:38;101035.91;;;17.15;37.28
45323;BME280;31382;50.200;8.674;2023-05-18T19:30:39;101038.78;;;17.00;37.58
45323;BME280;31382;50.200;8.674;2023-05-18T19:35:40;101053.31;;;16.86;37.81
45323;BME280;31382;50.200;8.674;2023-05-18T19:40:42;101044.66;;;16.69;38.44
45323;BME280;31382;50.200;8.674;2023-05-18T19:45:43;101051.78;;;16.49;38.73
45323;BME280;31382;50.200;8.674;2023-05-18T19:50:45;101051.72;;;16.35;39.11
45323;BME280;31382;50.200;8.674;2023-05-18T19:55:46;101055.78;;;16.24;39.34
45323;BME280;31382;50.200;8.674;2023-05-18T20:00:49;101056.97;;;16.15;39.42
45323;BME280;31382;50.200;8.674;2023-05-18T20:05:54;101059.38;;;16.03;39.71
45323;BME280;31382;50.200;8.674;2023-05-18T20:10:57;101067.19;;;15.92;39.98
45323;BME280;31382;50.200;8.674;2023-05-18T20:15:59;101066.09;;;15.86;40.04
45323;BME280;31382;50.200;8.674;2023-05-18T20:21:03;101067.69;;;15.80;40.11
45323;BME280;31382;50.200;8.674;2023-05-18T20:26:04;101078.75;;;15.64;40.36
45323;BME280;31382;50.200;8.674;2023-05-18T20:31:06;101084.91;;;15.58;40.48
45323;BME280;31382;50.200;8.674;2023-05-18T20:36:08;101074.00;;;15.51;40.54
45323;BME280;31382;50.200;8.674;2023-05-18T20:41:10;101077.03;;;15.41;40.61
45323;BME280;31382;50.200;8.674;2023-05-18T20:46:12;101091.25;;;15.29;40.99
45323;BME280;31382;50.200;8.674;2023-05-18T20:51:16;101092.56;;;15.18;41.27
45323;BME280;31382;50.200;8.674;2023-05-18T20:56:20;101092.47;;;15.11;41.23
45323;BME280;31382;50.200;8.674;2023-05-18T21:01:23;101096.19;;;15.10;41.61
45323;BME280;31382;50.200;8.674;2023-05-18T21:06:29;101101.34;;;15.05;41.73
45323;BME280;31382;50.200;8.674;2023-05-18T21:11:31;101098.53;;;14.98;41.69
45323;BME280;31382;50.200;8.674;2023-05-18T21:16:33;101103.47;;;14.95;41.84
45323;BME280;31382;50.200;8.674;2023-05-18T21:21:34;101108.72;;;14.81;42.32
45323;BME280;31382;50.200;8.674;2023-05-18T21:26:36;101108.81;;;14.73;42.69
45323;BME280;31382;50.200;8.674;2023-05-18T21:31:37;101110.16;;;14.69;42.65
45323;BME280;31382;50.200;8.674;2023-05-18T21:36:39;101105.81;;;14.68;42.82
45323;BME280;31382;50.200;8.674;2023-05-18T21:41:41;101109.59;;;14.59;42.61
45323;BME280;31382;50.200;8.674;2023-05-18T21:46:44;101102.34;;;14.59;42.73
45323;BME280;31382;50.200;8.674;2023-05-18T21:51:46;101104.25;;;14.51;42.93
45323;BME280;31382;50.200;8.674;2023-05-18T21:56:47;101104.50;;;14.41;43.05
45323;BME280;31382;50.200;8.674;2023-05-18T22:01:49;101100.00;;;14.33;43.11
45323;BME280;31382;50.200;8.674;2023-05-18T22:06:53;101106.97;;;14.27;43.41
45323;BME280;31382;50.200;8.674;2023-05-18T22:11:55;101104.63;;;14.24;43.61
45323;BME280;31382;50.200;8.674;2023-05-18T22:16:57;101096.03;;;14.21;43.90
45323;BME280;31382;50.200;8.674;2023-05-18T22:21:59;101102.66;;;14.18;43.89
45323;BME280;31382;50.200;8.674;2023-05-18T22:27:01;101103.06;;;14.07;44.49
45323;BME280;31382;50.200;8.674;2023-05-18T22:32:04;101100.13;;;13.94;44.73
45323;BME280;31382;50.200;8.674;2023-05-18T22:37:06;101109.44;;;13.91;44.76
45323;BME280;31382;50.200;8.674;2023-05-18T22:42:07;101099.84;;;13.88;44.97
45323;BME280;31382;50.200;8.674;2023-05-18T22:47:09;101094.28;;;13.82;44.87
45323;BME280;31382;50.200;8.674;2023-05-18T22:52:11;101100.28;;;13.69;45.58
45323;BME280;31382;50.200;8.674;2023-05-18T22:57:12;101096.97;;;13.59;45.80
45323;BME280;31382;50.200;8.674;2023-05-18T23:02:14;101094.63;;;13.56;46.25
45323;BME280;31382;50.200;8.674;2023-05-18T23:07:15;101090.94;;;13.48;46.19
45323;BME280;31382;50.200;8.674;2023-05-18T23:12:17;101097.25;;;13.41;46.85
45323;BME280;31382;50.200;8.674;2023-05-18T23:17:19;101095.91;;;13.28;47.05
45323;BME280;31382;50.200;8.674;2023-05-18T23:22:24;101093.06;;;13.22;47.31
45323;BME280;31382;50.200;8.674;2023-05-18T23:27:25;101090.25;;;13.15;47.12
45323;BME280;31382;50.200;8.674;2023-05-18T23:32:27;101079.81;;;13.04;47.43
45323;BME280;31382;50.200;8.674;2023-05-18T23:37:32;101077.34;;;12.86;48.16
45323;BME280;31382;50.200;8.674;2023-05-18T23:42:35;101078.16;;;12.86;47.68
45323;BME280;31382;50.200;8.674;2023-05-18T23:47:37;101079.69;;;12.81;48.38
45323;BME280;31382;50.200;8.674;2023-05-18T23:52:40;101076.00;;;12.74;48.08
45323;BME280;31382;50.200;8.674;2023-05-18T23:57:42;101069.09;;;12.71;48.53
